Pinconning, Michigan
Current Conditions -  °F | °C
As of 3:52 AM on Wednesday 22 Oct 2014 (Local Time) from KIKW Reporting Station
Overcast Overcast  
Wind Chill: 36°   Ceiling: 2000
Heat Index: 40°   Visibility: 10mi
Dew Point: 34°   Wind: 6mph
Humidity: 78%   Direction: 340°NNW
Pressure: 30.29"   Gusts: NA
Location:  43.85°N, 83.96°W
Report Text: KIKW 220752Z AUTO 34005KT 10SM OVC020 05/01 A3029 RMK AO2 T00450010
Loading
Personal Weather Stations






























Interactive Weather Map
Tropical Storm Tracking
New forecast layout! Learn more

10-Day Weather Forecast

Advertisements
Track Severe Weather on mobile